Terminal Aerodrome Forecast
Issued by NWS Shreveport, LA

Home | Current Version | Previous Version | Text Only | Print | Product List | Glossary On
Versions: 1 2 3 4 5 6 7 8 9 10 11 12
000
FTUS44 KSHV 191100
TAFGGG
TAF
KGGG 191120Z 1912/2012 04005KT 5SM -RA BR OVC004
     FM192100 06005KT 5SM BR OVC007
     FM200600 02003KT 3SM BR OVC003=

USA.gov is the U.S. government's official web portal to all federal, state and local government web resources and services.